sensor_id;sensor_type;location;lat;lon;timestamp;pressure;altitude;pressure_sealevel;temperature;humidity
62895;BME280;49204;44.916;37.998;2023-01-27T00:01:33;102031.05;;;-1.61;74.00
62895;BME280;49204;44.916;37.998;2023-01-27T00:04:02;102028.02;;;-1.62;73.97
62895;BME280;49204;44.916;37.998;2023-01-27T00:06:32;102023.61;;;-1.64;73.95
62895;BME280;49204;44.916;37.998;2023-01-27T00:09:01;102025.80;;;-1.64;73.89
62895;BME280;49204;44.916;37.998;2023-01-27T00:11:30;102025.86;;;-1.62;73.83
62895;BME280;49204;44.916;37.998;2023-01-27T00:14:16;102018.31;;;-1.69;73.90
62895;BME280;49204;44.916;37.998;2023-01-27T00:16:44;102021.89;;;-1.78;74.15
62895;BME280;49204;44.916;37.998;2023-01-27T00:19:13;102017.70;;;-1.75;74.21
62895;BME280;49204;44.916;37.998;2023-01-27T00:21:43;102014.70;;;-1.74;74.30
62895;BME280;49204;44.916;37.998;2023-01-27T00:24:30;102013.41;;;-1.74;74.32
62895;BME280;49204;44.916;37.998;2023-01-27T00:27:05;102012.59;;;-1.73;74.16
62895;BME280;49204;44.916;37.998;2023-01-27T00:29:38;102017.17;;;-1.77;74.14
62895;BME280;49204;44.916;37.998;2023-01-27T00:32:08;102014.15;;;-1.78;74.28
62895;BME280;49204;44.916;37.998;2023-01-27T00:34:55;102010.28;;;-1.78;74.37
62895;BME280;49204;44.916;37.998;2023-01-27T00:37:23;102012.20;;;-1.85;74.54
62895;BME280;49204;44.916;37.998;2023-01-27T00:39:52;102009.25;;;-1.83;74.54
62895;BME280;49204;44.916;37.998;2023-01-27T00:42:20;102003.16;;;-1.85;74.40
62895;BME280;49204;44.916;37.998;2023-01-27T00:44:49;101991.85;;;-1.89;74.16
62895;BME280;49204;44.916;37.998;2023-01-27T00:47:35;101990.06;;;-1.91;74.01
62895;BME280;49204;44.916;37.998;2023-01-27T00:50:04;101991.24;;;-1.95;74.02
62895;BME280;49204;44.916;37.998;2023-01-27T00:52:34;101988.92;;;-2.00;74.11
62895;BME280;49204;44.916;37.998;2023-01-27T00:55:03;101991.20;;;-2.09;74.13
62895;BME280;49204;44.916;37.998;2023-01-27T00:57:32;101987.39;;;-2.07;74.02
62895;BME280;49204;44.916;37.998;2023-01-27T01:00:00;101972.41;;;-2.05;73.90
62895;BME280;49204;44.916;37.998;2023-01-27T01:02:30;101971.64;;;-2.02;73.80
62895;BME280;49204;44.916;37.998;2023-01-27T01:04:58;101973.13;;;-2.09;73.96
62895;BME280;49204;44.916;37.998;2023-01-27T01:07:28;101968.45;;;-2.08;74.06
62895;BME280;49204;44.916;37.998;2023-01-27T01:09:57;101966.23;;;-2.10;74.08
62895;BME280;49204;44.916;37.998;2023-01-27T01:12:26;101965.77;;;-2.11;74.19
62895;BME280;49204;44.916;37.998;2023-01-27T01:14:55;101964.58;;;-2.08;74.25
62895;BME280;49204;44.916;37.998;2023-01-27T01:17:24;101958.27;;;-2.16;74.27
62895;BME280;49204;44.916;37.998;2023-01-27T01:19:52;101953.73;;;-2.23;74.42
62895;BME280;49204;44.916;37.998;2023-01-27T01:22:21;101955.56;;;-2.21;74.45
62895;BME280;49204;44.916;37.998;2023-01-27T01:24:50;101958.22;;;-2.18;74.32
62895;BME280;49204;44.916;37.998;2023-01-27T01:27:18;101951.38;;;-2.17;74.22
62895;BME280;49204;44.916;37.998;2023-01-27T01:29:47;101948.32;;;-2.18;74.33
62895;BME280;49204;44.916;37.998;2023-01-27T01:32:16;101950.91;;;-2.18;74.32
62895;BME280;49204;44.916;37.998;2023-01-27T01:34:44;101947.20;;;-2.14;74.15
62895;BME280;49204;44.916;37.998;2023-01-27T01:37:13;101941.87;;;-2.18;74.30
62895;BME280;49204;44.916;37.998;2023-01-27T01:39:41;101941.05;;;-2.17;74.51
62895;BME280;49204;44.916;37.998;2023-01-27T01:42:10;101943.83;;;-2.11;74.41
62895;BME280;49204;44.916;37.998;2023-01-27T01:44:43;101945.59;;;-2.10;74.23
62895;BME280;49204;44.916;37.998;2023-01-27T01:47:14;101944.38;;;-2.07;74.11
62895;BME280;49204;44.916;37.998;2023-01-27T01:49:45;101941.41;;;-2.06;73.88
62895;BME280;49204;44.916;37.998;2023-01-27T01:52:18;101939.95;;;-2.11;73.96
62895;BME280;49204;44.916;37.998;2023-01-27T01:54:49;101930.68;;;-2.19;74.01
62895;BME280;49204;44.916;37.998;2023-01-27T01:57:27;101925.52;;;-2.19;74.05
62895;BME280;49204;44.916;37.998;2023-01-27T02:00:05;101927.05;;;-2.11;74.02
62895;BME280;49204;44.916;37.998;2023-01-27T02:02:36;101916.84;;;-2.08;74.11
62895;BME280;49204;44.916;37.998;2023-01-27T02:08:04;101923.89;;;-2.02;74.27
62895;BME280;49204;44.916;37.998;2023-01-27T02:10:34;101922.81;;;-2.09;74.37
62895;BME280;49204;44.916;37.998;2023-01-27T02:13:02;101920.59;;;-2.11;74.39
62895;BME280;49204;44.916;37.998;2023-01-27T02:15:32;101924.89;;;-2.11;74.17
62895;BME280;49204;44.916;37.998;2023-01-27T02:18:01;101918.46;;;-2.24;74.29
62895;BME280;49204;44.916;37.998;2023-01-27T02:20:44;101927.59;;;-2.21;74.42
62895;BME280;49204;44.916;37.998;2023-01-27T02:26:39;101922.88;;;-2.18;74.47
62895;BME280;49204;44.916;37.998;2023-01-27T02:28:40;101922.88;;;-2.20;74.48
62895;BME280;49204;44.916;37.998;2023-01-27T02:31:09;101927.94;;;-2.23;74.08
62895;BME280;49204;44.916;37.998;2023-01-27T02:33:38;101925.78;;;-2.24;73.97
62895;BME280;49204;44.916;37.998;2023-01-27T02:36:09;101925.78;;;-2.24;74.00
62895;BME280;49204;44.916;37.998;2023-01-27T02:38:46;101924.06;;;-2.23;73.88
62895;BME280;49204;44.916;37.998;2023-01-27T02:43:54;101927.25;;;-2.32;74.20
62895;BME280;49204;44.916;37.998;2023-01-27T02:46:23;101929.15;;;-2.26;74.33
62895;BME280;49204;44.916;37.998;2023-01-27T02:48:52;101925.35;;;-2.23;74.28
62895;BME280;49204;44.916;37.998;2023-01-27T02:51:21;101924.91;;;-2.24;74.27
62895;BME280;49204;44.916;37.998;2023-01-27T02:53:50;101918.03;;;-2.24;74.29
62895;BME280;49204;44.916;37.998;2023-01-27T02:56:20;101915.63;;;-2.19;74.17
62895;BME280;49204;44.916;37.998;2023-01-27T02:58:48;101914.64;;;-2.23;73.99
62895;BME280;49204;44.916;37.998;2023-01-27T03:01:18;101912.12;;;-2.21;73.93
62895;BME280;49204;44.916;37.998;2023-01-27T03:03:47;101915.14;;;-2.20;73.75
62895;BME280;49204;44.916;37.998;2023-01-27T03:06:19;101916.86;;;-2.21;73.61
62895;BME280;49204;44.916;37.998;2023-01-27T03:08:48;101913.24;;;-2.26;73.49
62895;BME280;49204;44.916;37.998;2023-01-27T03:11:17;101913.05;;;-2.32;73.41
62895;BME280;49204;44.916;37.998;2023-01-27T03:14:03;101917.99;;;-2.38;73.38
62895;BME280;49204;44.916;37.998;2023-01-27T03:16:32;101913.45;;;-2.45;73.36
62895;BME280;49204;44.916;37.998;2023-01-27T03:19:18;101914.74;;;-2.45;73.34
62895;BME280;49204;44.916;37.998;2023-01-27T03:21:47;101916.52;;;-2.57;73.52
62895;BME280;49204;44.916;37.998;2023-01-27T03:24:20;101924.86;;;-2.64;73.80
62895;BME280;49204;44.916;37.998;2023-01-27T03:26:49;101927.44;;;-2.64;73.80
62895;BME280;49204;44.916;37.998;2023-01-27T03:29:19;101921.72;;;-2.68;73.75
62895;BME280;49204;44.916;37.998;2023-01-27T03:32:05;101917.30;;;-2.73;73.74
62895;BME280;49204;44.916;37.998;2023-01-27T03:34:35;101911.16;;;-2.76;73.83
62895;BME280;49204;44.916;37.998;2023-01-27T03:37:05;101903.92;;;-2.74;73.71
62895;BME280;49204;44.916;37.998;2023-01-27T03:39:51;101908.52;;;-2.78;73.57
62895;BME280;49204;44.916;37.998;2023-01-27T03:42:38;101906.39;;;-2.77;73.65
62895;BME280;49204;44.916;37.998;2023-01-27T03:45:24;101909.61;;;-2.84;73.92
62895;BME280;49204;44.916;37.998;2023-01-27T03:48:12;101910.05;;;-2.83;73.95
62895;BME280;49204;44.916;37.998;2023-01-27T03:50:41;101918.35;;;-2.79;73.72
62895;BME280;49204;44.916;37.998;2023-01-27T03:53:10;101913.31;;;-2.76;73.53
62895;BME280;49204;44.916;37.998;2023-01-27T03:55:39;101913.80;;;-2.75;73.56
62895;BME280;49204;44.916;37.998;2023-01-27T03:58:19;101915.89;;;-2.76;73.49
62895;BME280;49204;44.916;37.998;2023-01-27T04:03:28;101914.28;;;-2.85;73.72
62895;BME280;49204;44.916;37.998;2023-01-27T04:06:21;101920.73;;;-2.85;73.92
62895;BME280;49204;44.916;37.998;2023-01-27T04:09:05;101922.08;;;-2.83;74.08
62895;BME280;49204;44.916;37.998;2023-01-27T04:11:34;101921.20;;;-2.84;74.04
62895;BME280;49204;44.916;37.998;2023-01-27T04:14:32;101917.95;;;-2.91;73.98
62895;BME280;49204;44.916;37.998;2023-01-27T04:17:04;101921.13;;;-2.98;74.02
62895;BME280;49204;44.916;37.998;2023-01-27T04:19:33;101918.67;;;-3.06;74.09
62895;BME280;49204;44.916;37.998;2023-01-27T04:22:03;101923.14;;;-3.14;74.24
62895;BME280;49204;44.916;37.998;2023-01-27T04:24:32;101914.39;;;-3.19;74.23
62895;BME280;49204;44.916;37.998;2023-01-27T04:27:09;101914.39;;;-3.19;74.23
62895;BME280;49204;44.916;37.998;2023-01-27T04:29:39;101919.62;;;-3.16;73.96
62895;BME280;49204;44.916;37.998;2023-01-27T04:32:10;101916.84;;;-3.22;74.13
62895;BME280;49204;44.916;37.998;2023-01-27T04:34:40;101928.92;;;-3.21;74.46
62895;BME280;49204;44.916;37.998;2023-01-27T04:37:09;101926.22;;;-3.24;74.58
62895;BME280;49204;44.916;37.998;2023-01-27T04:39:38;101925.05;;;-3.21;74.69
62895;BME280;49204;44.916;37.998;2023-01-27T04:42:08;101919.33;;;-3.12;74.47
62895;BME280;49204;44.916;37.998;2023-01-27T04:44:36;101923.47;;;-3.04;74.18
62895;BME280;49204;44.916;37.998;2023-01-27T04:47:05;101928.02;;;-2.97;74.00
62895;BME280;49204;44.916;37.998;2023-01-27T04:49:34;101922.98;;;-2.94;73.79
62895;BME280;49204;44.916;37.998;2023-01-27T04:52:03;101927.09;;;-2.99;73.70
62895;BME280;49204;44.916;37.998;2023-01-27T04:54:32;101929.97;;;-3.03;73.59
62895;BME280;49204;44.916;37.998;2023-01-27T04:57:01;101929.16;;;-3.02;73.77
62895;BME280;49204;44.916;37.998;2023-01-27T04:59:30;101929.79;;;-2.96;73.74
62895;BME280;49204;44.916;37.998;2023-01-27T05:01:58;101934.58;;;-2.94;73.81
62895;BME280;49204;44.916;37.998;2023-01-27T05:04:27;101930.66;;;-2.96;73.67
62895;BME280;49204;44.916;37.998;2023-01-27T05:06:56;101934.09;;;-2.95;73.70
62895;BME280;49204;44.916;37.998;2023-01-27T05:09:24;101925.50;;;-2.96;73.67
62895;BME280;49204;44.916;37.998;2023-01-27T05:11:53;101932.97;;;-2.95;73.61
62895;BME280;49204;44.916;37.998;2023-01-27T05:14:21;101932.97;;;-3.03;74.05
62895;BME280;49204;44.916;37.998;2023-01-27T05:16:50;101934.25;;;-3.03;73.85
62895;BME280;49204;44.916;37.998;2023-01-27T05:19:19;101936.53;;;-3.00;73.77
62895;BME280;49204;44.916;37.998;2023-01-27T05:21:47;101937.03;;;-2.97;73.63
62895;BME280;49204;44.916;37.998;2023-01-27T05:24:16;101934.09;;;-2.95;73.51
62895;BME280;49204;44.916;37.998;2023-01-27T05:26:44;101933.71;;;-2.95;73.46
62895;BME280;49204;44.916;37.998;2023-01-27T05:29:13;101929.67;;;-2.99;73.58
62895;BME280;49204;44.916;37.998;2023-01-27T05:31:42;101926.05;;;-3.04;73.61
62895;BME280;49204;44.916;37.998;2023-01-27T05:34:10;101931.31;;;-3.01;73.61
62895;BME280;49204;44.916;37.998;2023-01-27T05:36:39;101929.91;;;-2.93;73.52
62895;BME280;49204;44.916;37.998;2023-01-27T05:39:09;101933.66;;;-2.96;73.51
62895;BME280;49204;44.916;37.998;2023-01-27T05:41:38;101936.47;;;-3.01;73.64
62895;BME280;49204;44.916;37.998;2023-01-27T05:44:09;101931.53;;;-3.08;73.96
62895;BME280;49204;44.916;37.998;2023-01-27T05:46:40;101927.33;;;-3.04;74.13
62895;BME280;49204;44.916;37.998;2023-01-27T05:49:09;101925.00;;;-2.98;74.12
62895;BME280;49204;44.916;37.998;2023-01-27T05:51:38;101923.70;;;-2.98;73.97
62895;BME280;49204;44.916;37.998;2023-01-27T05:54:08;101930.83;;;-2.91;73.79
62895;BME280;49204;44.916;37.998;2023-01-27T05:56:37;101925.41;;;-2.86;73.60
62895;BME280;49204;44.916;37.998;2023-01-27T05:59:07;101926.39;;;-2.82;73.47
62895;BME280;49204;44.916;37.998;2023-01-27T06:01:36;101937.78;;;-2.88;73.66
62895;BME280;49204;44.916;37.998;2023-01-27T06:04:05;101939.49;;;-2.89;73.82
62895;BME280;49204;44.916;37.998;2023-01-27T06:06:33;101939.55;;;-2.87;73.73
62895;BME280;49204;44.916;37.998;2023-01-27T06:09:03;101932.20;;;-2.88;73.53
62895;BME280;49204;44.916;37.998;2023-01-27T06:11:31;101935.63;;;-2.89;73.51
62895;BME280;49204;44.916;37.998;2023-01-27T06:14:00;101938.56;;;-2.91;73.45
62895;BME280;49204;44.916;37.998;2023-01-27T06:16:29;101934.09;;;-2.95;73.49
62895;BME280;49204;44.916;37.998;2023-01-27T06:18:57;101930.59;;;-2.97;73.41
62895;BME280;49204;44.916;37.998;2023-01-27T06:21:26;101926.34;;;-2.97;73.38
62895;BME280;49204;44.916;37.998;2023-01-27T06:23:55;101909.07;;;-2.86;73.36
62895;BME280;49204;44.916;37.998;2023-01-27T06:26:24;101909.07;;;-2.86;73.36
62895;BME280;49204;44.916;37.998;2023-01-27T06:28:55;101914.77;;;-2.84;73.29
62895;BME280;49204;44.916;37.998;2023-01-27T06:31:25;101904.48;;;-2.90;73.43
62895;BME280;49204;44.916;37.998;2023-01-27T06:33:54;101904.48;;;-2.82;73.34
62895;BME280;49204;44.916;37.998;2023-01-27T06:36:23;101905.41;;;-2.67;73.23
62895;BME280;49204;44.916;37.998;2023-01-27T06:38:52;101903.79;;;-2.65;73.33
62895;BME280;49204;44.916;37.998;2023-01-27T06:41:21;101896.73;;;-2.58;73.24
62895;BME280;49204;44.916;37.998;2023-01-27T06:43:49;101895.63;;;-2.52;73.32
62895;BME280;49204;44.916;37.998;2023-01-27T06:46:18;101891.03;;;-2.48;73.35
62895;BME280;49204;44.916;37.998;2023-01-27T06:48:46;101885.25;;;-2.41;73.50
62895;BME280;49204;44.916;37.998;2023-01-27T06:51:15;101887.75;;;-2.29;73.30
62895;BME280;49204;44.916;37.998;2023-01-27T06:53:44;101885.48;;;-2.33;73.08
62895;BME280;49204;44.916;37.998;2023-01-27T06:56:12;101878.36;;;-2.27;73.15
62895;BME280;49204;44.916;37.998;2023-01-27T06:58:41;101884.13;;;-2.22;73.24
62895;BME280;49204;44.916;37.998;2023-01-27T07:01:10;101877.57;;;-2.12;73.07
62895;BME280;49204;44.916;37.998;2023-01-27T07:03:38;101870.83;;;-2.07;72.97
62895;BME280;49204;44.916;37.998;2023-01-27T07:06:07;101869.32;;;-2.00;73.00
62895;BME280;49204;44.916;37.998;2023-01-27T07:08:37;101874.07;;;-1.85;72.92
62895;BME280;49204;44.916;37.998;2023-01-27T07:11:06;101872.23;;;-1.75;72.72
62895;BME280;49204;44.916;37.998;2023-01-27T07:13:34;101866.86;;;-1.67;72.32
62895;BME280;49204;44.916;37.998;2023-01-27T07:16:03;101858.91;;;-1.59;71.98
62895;BME280;49204;44.916;37.998;2023-01-27T07:18:32;101864.65;;;-1.54;71.87
62895;BME280;49204;44.916;37.998;2023-01-27T07:21:03;101857.44;;;-1.50;71.98
62895;BME280;49204;44.916;37.998;2023-01-27T07:23:32;101846.98;;;-1.39;71.74
62895;BME280;49204;44.916;37.998;2023-01-27T07:26:01;101846.33;;;-1.32;71.52
62895;BME280;49204;44.916;37.998;2023-01-27T07:28:30;101841.78;;;-1.25;71.29
62895;BME280;49204;44.916;37.998;2023-01-27T07:31:02;101842.80;;;-1.20;71.15
62895;BME280;49204;44.916;37.998;2023-01-27T07:33:30;101836.02;;;-1.14;70.97
62895;BME280;49204;44.916;37.998;2023-01-27T07:35:59;101837.48;;;-1.08;70.84
62895;BME280;49204;44.916;37.998;2023-01-27T07:38:28;101827.88;;;-0.97;70.96
62895;BME280;49204;44.916;37.998;2023-01-27T07:40:56;101828.67;;;-0.82;70.77
62895;BME280;49204;44.916;37.998;2023-01-27T07:43:25;101828.99;;;-0.69;70.54
62895;BME280;49204;44.916;37.998;2023-01-27T07:45:54;101827.45;;;-0.61;70.26
62895;BME280;49204;44.916;37.998;2023-01-27T07:48:23;101825.86;;;-0.56;70.23
62895;BME280;49204;44.916;37.998;2023-01-27T07:50:52;101819.91;;;-0.53;70.09
62895;BME280;49204;44.916;37.998;2023-01-27T07:53:20;101815.91;;;-0.39;69.88
62895;BME280;49204;44.916;37.998;2023-01-27T07:55:49;101810.64;;;-0.44;69.65
62895;BME280;49204;44.916;37.998;2023-01-27T07:58:18;101813.61;;;-0.46;69.64
62895;BME280;49204;44.916;37.998;2023-01-27T08:00:46;101813.31;;;-0.39;69.76
62895;BME280;49204;44.916;37.998;2023-01-27T08:03:20;101810.60;;;-0.07;69.67
62895;BME280;49204;44.916;37.998;2023-01-27T08:05:49;101803.32;;;0.38;69.49
62895;BME280;49204;44.916;37.998;2023-01-27T08:08:18;101805.41;;;0.56;68.59
62895;BME280;49204;44.916;37.998;2023-01-27T08:10:47;101801.92;;;0.54;68.28
62895;BME280;49204;44.916;37.998;2023-01-27T08:13:17;101796.84;;;0.60;68.23
62895;BME280;49204;44.916;37.998;2023-01-27T08:15:45;101790.92;;;0.91;68.04
62895;BME280;49204;44.916;37.998;2023-01-27T08:18:14;101789.17;;;1.15;67.75
62895;BME280;49204;44.916;37.998;2023-01-27T08:20:43;101785.61;;;1.35;67.67
62895;BME280;49204;44.916;37.998;2023-01-27T08:23:11;101788.86;;;1.50;68.04
62895;BME280;49204;44.916;37.998;2023-01-27T08:25:40;101775.41;;;1.77;67.96
62895;BME280;49204;44.916;37.998;2023-01-27T08:28:08;101772.11;;;2.23;67.09
62895;BME280;49204;44.916;37.998;2023-01-27T08:30:37;101764.63;;;2.54;66.36
62895;BME280;49204;44.916;37.998;2023-01-27T08:33:06;101760.12;;;2.80;66.06
62895;BME280;49204;44.916;37.998;2023-01-27T08:35:35;101743.30;;;2.89;66.39
62895;BME280;49204;44.916;37.998;2023-01-27T08:38:05;101742.60;;;3.08;66.56
62895;BME280;49204;44.916;37.998;2023-01-27T08:40:34;101737.29;;;3.57;65.48
62895;BME280;49204;44.916;37.998;2023-01-27T08:43:02;101740.42;;;3.73;64.56
62895;BME280;49204;44.916;37.998;2023-01-27T08:45:31;101729.07;;;3.65;63.97
62895;BME280;49204;44.916;37.998;2023-01-27T08:48:00;101730.80;;;3.63;63.97
62895;BME280;49204;44.916;37.998;2023-01-27T08:50:29;101723.19;;;4.09;63.19
62895;BME280;49204;44.916;37.998;2023-01-27T08:52:58;101715.95;;;5.26;61.37
62895;BME280;49204;44.916;37.998;2023-01-27T08:55:29;101716.75;;;5.54;60.95
62895;BME280;49204;44.916;37.998;2023-01-27T08:57:58;101714.59;;;5.50;60.76
62895;BME280;49204;44.916;37.998;2023-01-27T09:00:27;101704.16;;;5.39;61.05
62895;BME280;49204;44.916;37.998;2023-01-27T09:02:56;101700.05;;;5.92;61.03
62895;BME280;49204;44.916;37.998;2023-01-27T09:05:24;101692.09;;;6.26;60.00
62895;BME280;49204;44.916;37.998;2023-01-27T09:07:53;101689.23;;;5.75;60.17
62895;BME280;49204;44.916;37.998;2023-01-27T09:10:22;101685.92;;;5.12;61.06
62895;BME280;49204;44.916;37.998;2023-01-27T09:12:50;101676.37;;;4.66;61.82
62895;BME280;49204;44.916;37.998;2023-01-27T09:15:19;101669.42;;;4.63;62.05
62895;BME280;49204;44.916;37.998;2023-01-27T09:17:48;101662.39;;;5.33;60.77
62895;BME280;49204;44.916;37.998;2023-01-27T09:20:16;101662.27;;;5.67;59.98
62895;BME280;49204;44.916;37.998;2023-01-27T09:22:45;101664.39;;;5.83;59.62
62895;BME280;49204;44.916;37.998;2023-01-27T09:25:15;101659.75;;;5.38;60.46
62895;BME280;49204;44.916;37.998;2023-01-27T09:27:44;101653.32;;;4.62;61.11
62895;BME280;49204;44.916;37.998;2023-01-27T09:30:14;101646.75;;;4.04;62.16
62895;BME280;49204;44.916;37.998;2023-01-27T09:32:43;101647.53;;;3.78;62.72
62895;BME280;49204;44.916;37.998;2023-01-27T09:35:11;101657.00;;;3.61;62.99
62895;BME280;49204;44.916;37.998;2023-01-27T09:37:44;101650.00;;;3.47;63.34
62895;BME280;49204;44.916;37.998;2023-01-27T09:40:23;101644.83;;;3.55;63.66
62895;BME280;49204;44.916;37.998;2023-01-27T09:49:29;101627.03;;;3.58;63.81
62895;BME280;49204;44.916;37.998;2023-01-27T09:51:18;101636.17;;;3.61;63.67
62895;BME280;49204;44.916;37.998;2023-01-27T09:56:31;101609.69;;;3.63;63.90
62895;BME280;49204;44.916;37.998;2023-01-27T09:59:18;101598.00;;;3.67;63.74
62895;BME280;49204;44.916;37.998;2023-01-27T10:18:44;101567.78;;;7.88;55.81
62895;BME280;49204;44.916;37.998;2023-01-27T10:21:20;101569.34;;;8.82;53.97
62895;BME280;49204;44.916;37.998;2023-01-27T10:26:48;101561.39;;;10.10;51.59
62895;BME280;49204;44.916;37.998;2023-01-27T10:29:23;101551.70;;;10.64;50.53
62895;BME280;49204;44.916;37.998;2023-01-27T10:34:43;101535.22;;;11.22;49.39
62895;BME280;49204;44.916;37.998;2023-01-27T10:45:34;101530.66;;;12.13;47.36
62895;BME280;49204;44.916;37.998;2023-01-27T10:48:17;101531.59;;;12.12;46.60
62895;BME280;49204;44.916;37.998;2023-01-27T10:51:02;101516.82;;;12.06;46.44
62895;BME280;49204;44.916;37.998;2023-01-27T10:56:17;101518.63;;;11.89;46.38
62895;BME280;49204;44.916;37.998;2023-01-27T10:58:58;101516.50;;;11.87;46.54
62895;BME280;49204;44.916;37.998;2023-01-27T11:01:29;101522.13;;;12.31;46.19
62895;BME280;49204;44.916;37.998;2023-01-27T11:04:07;101513.19;;;12.49;45.77
62895;BME280;49204;44.916;37.998;2023-01-27T11:06:36;101514.75;;;12.41;45.69
62895;BME280;49204;44.916;37.998;2023-01-27T11:11:49;101507.96;;;12.21;45.42
62895;BME280;49204;44.916;37.998;2023-01-27T11:14:47;101501.08;;;11.90;45.22
62895;BME280;49204;44.916;37.998;2023-01-27T11:17:40;101501.45;;;11.63;45.23
62895;BME280;49204;44.916;37.998;2023-01-27T11:20:29;101501.30;;;11.67;45.41
62895;BME280;49204;44.916;37.998;2023-01-27T11:23:16;101493.25;;;11.72;45.44
62895;BME280;49204;44.916;37.998;2023-01-27T11:31:38;101497.63;;;10.84;47.23
62895;BME280;49204;44.916;37.998;2023-01-27T11:34:25;101495.81;;;10.86;47.13
62895;BME280;49204;44.916;37.998;2023-01-27T11:36:53;101494.70;;;11.09;46.41
62895;BME280;49204;44.916;37.998;2023-01-27T11:39:22;101499.02;;;11.12;46.18
62895;BME280;49204;44.916;37.998;2023-01-27T11:41:53;101499.79;;;11.15;46.26
62895;BME280;49204;44.916;37.998;2023-01-27T11:44:25;101491.30;;;11.20;46.15
62895;BME280;49204;44.916;37.998;2023-01-27T11:46:55;101496.77;;;11.14;46.49
62895;BME280;49204;44.916;37.998;2023-01-27T11:49:33;101498.35;;;11.20;46.65
62895;BME280;49204;44.916;37.998;2023-01-27T11:52:00;101501.45;;;11.34;46.64
62895;BME280;49204;44.916;37.998;2023-01-27T11:54:58;101503.58;;;11.36;46.52
62895;BME280;49204;44.916;37.998;2023-01-27T11:57:17;101499.98;;;11.39;46.71
62895;BME280;49204;44.916;37.998;2023-01-27T11:59:42;101494.67;;;11.26;46.87
62895;BME280;49204;44.916;37.998;2023-01-27T12:02:29;101493.58;;;11.03;47.26
62895;BME280;49204;44.916;37.998;2023-01-27T12:05:08;101496.61;;;11.04;47.39
62895;BME280;49204;44.916;37.998;2023-01-27T12:10:29;101493.92;;;10.91;47.91
62895;BME280;49204;44.916;37.998;2023-01-27T12:12:57;101486.28;;;10.81;48.19
62895;BME280;49204;44.916;37.998;2023-01-27T12:15:27;101477.75;;;10.57;48.39
62895;BME280;49204;44.916;37.998;2023-01-27T12:17:59;101486.26;;;10.14;48.74
62895;BME280;49204;44.916;37.998;2023-01-27T12:20:47;101486.00;;;9.71;49.29
62895;BME280;49204;44.916;37.998;2023-01-27T12:23:26;101485.75;;;9.62;49.44
62895;BME280;49204;44.916;37.998;2023-01-27T12:26:09;101479.41;;;9.34;50.17
62895;BME280;49204;44.916;37.998;2023-01-27T12:31:12;101494.50;;;7.79;52.95
62895;BME280;49204;44.916;37.998;2023-01-27T12:33:44;101490.03;;;7.25;53.98
62895;BME280;49204;44.916;37.998;2023-01-27T12:36:16;101489.22;;;6.84;54.82
62895;BME280;49204;44.916;37.998;2023-01-27T12:38:51;101486.99;;;6.48;55.72
62895;BME280;49204;44.916;37.998;2023-01-27T12:41:30;101489.80;;;6.27;56.25
62895;BME280;49204;44.916;37.998;2023-01-27T12:43:59;101499.58;;;6.06;56.63
62895;BME280;49204;44.916;37.998;2023-01-27T12:46:30;101490.55;;;5.86;56.95
62895;BME280;49204;44.916;37.998;2023-01-27T12:49:09;101495.03;;;5.72;57.34
62895;BME280;49204;44.916;37.998;2023-01-27T12:52:00;101487.70;;;5.59;57.60
62895;BME280;49204;44.916;37.998;2023-01-27T12:54:23;101483.86;;;5.47;57.79
62895;BME280;49204;44.916;37.998;2023-01-27T12:56:53;101483.02;;;5.38;58.03
62895;BME280;49204;44.916;37.998;2023-01-27T12:59:24;101483.51;;;5.30;58.27
62895;BME280;49204;44.916;37.998;2023-01-27T13:02:18;101490.08;;;5.26;58.54
62895;BME280;49204;44.916;37.998;2023-01-27T13:04:54;101490.98;;;5.17;58.67
62895;BME280;49204;44.916;37.998;2023-01-27T13:07:26;101486.66;;;5.13;58.84
62895;BME280;49204;44.916;37.998;2023-01-27T13:09:57;101477.52;;;5.10;58.89
62895;BME280;49204;44.916;37.998;2023-01-27T13:12:29;101483.64;;;5.02;59.14
62895;BME280;49204;44.916;37.998;2023-01-27T13:15:07;101488.45;;;4.92;59.41
62895;BME280;49204;44.916;37.998;2023-01-27T13:17:43;101489.38;;;4.85;59.67
62895;BME280;49204;44.916;37.998;2023-01-27T13:23:00;101492.43;;;4.80;59.87
62895;BME280;49204;44.916;37.998;2023-01-27T13:25:45;101493.31;;;4.71;60.06
62895;BME280;49204;44.916;37.998;2023-01-27T13:27:59;101494.20;;;4.66;60.34
62895;BME280;49204;44.916;37.998;2023-01-27T13:30:36;101489.01;;;4.58;60.48
62895;BME280;49204;44.916;37.998;2023-01-27T13:35:55;101488.58;;;4.49;60.92
62895;BME280;49204;44.916;37.998;2023-01-27T13:38:36;101487.30;;;4.44;60.97
62895;BME280;49204;44.916;37.998;2023-01-27T13:41:05;101480.33;;;4.39;61.22
62895;BME280;49204;44.916;37.998;2023-01-27T13:43:37;101473.41;;;4.30;61.61
62895;BME280;49204;44.916;37.998;2023-01-27T13:46:12;101471.24;;;4.27;61.67
62895;BME280;49204;44.916;37.998;2023-01-27T13:48:51;101468.63;;;4.22;61.66
62895;BME280;49204;44.916;37.998;2023-01-27T13:51:17;101466.90;;;4.18;61.68
62895;BME280;49204;44.916;37.998;2023-01-27T13:53:51;101468.63;;;4.11;61.73
62895;BME280;49204;44.916;37.998;2023-01-27T13:59:12;101463.00;;;3.99;61.92
62895;BME280;49204;44.916;37.998;2023-01-27T14:04:56;101459.97;;;3.84;62.07
62895;BME280;49204;44.916;37.998;2023-01-27T14:18:38;101456.42;;;3.33;62.92
62895;BME280;49204;44.916;37.998;2023-01-27T14:26:20;101460.70;;;3.13;63.34
62895;BME280;49204;44.916;37.998;2023-01-27T14:29:02;101455.03;;;3.04;63.51
62895;BME280;49204;44.916;37.998;2023-01-27T14:40:47;101458.82;;;2.76;63.98
62895;BME280;49204;44.916;37.998;2023-01-27T14:46:05;101464.81;;;2.61;64.20
62895;BME280;49204;44.916;37.998;2023-01-27T14:51:29;101463.49;;;2.55;64.37
62895;BME280;49204;44.916;37.998;2023-01-27T15:02:16;101471.15;;;2.34;64.47
62895;BME280;49204;44.916;37.998;2023-01-27T15:10:23;101466.73;;;2.20;64.82